Time;durP1;ratioP1;P1;durP2;ratioP2;P2;SDS_P1;SDS_P2;PMS_P1;PMS_P2;Temp;Humidity;BMP_temperature;BMP_pressure;BME280_temperature;BME280_humidity;BME280_pressure;Samples;Min_cycle;Max_cycle;Signal;HPM_P1;HPM_P2
2021/07/17 00:00:42;;;;;;;;;3.33;3.33;;;;;25.98;52.10;98341.13;4948409;28;102418;-82
2021/07/17 00:03:09;;;;;;;;;6.67;6.67;;;;;25.97;51.81;98339.47;4916952;28;102572;-82
2021/07/17 00:05:37;;;;;;;;;3.67;3.00;;;;;25.96;52.02;98332.28;4921181;28;105502;-82
2021/07/17 00:08:05;;;;;;;;;5.00;5.00;;;;;25.95;52.01;98322.31;4924950;28;102615;-82
2021/07/17 00:10:44;;;;;;;;;4.00;4.00;;;;;25.95;51.80;98323.13;4951505;28;102396;-82
2021/07/17 00:13:13;;;;;;;;;4.00;2.67;;;;;25.93;51.98;98314.31;4940939;28;102777;-82
2021/07/17 00:15:41;;;;;;;;;5.00;5.00;;;;;25.94;52.06;98315.13;4942775;28;103269;-81
2021/07/17 00:18:14;;;;;;;;;6.00;5.33;;;;;25.95;52.02;98311.22;4944511;28;102440;-82
2021/07/17 00:20:44;;;;;;;;;4.00;4.00;;;;;25.93;52.10;98308.78;4941116;28;102887;-82
2021/07/17 00:23:12;;;;;;;;;5.00;5.00;;;;;25.92;52.07;98306.31;4949232;28;102643;-82
2021/07/17 00:25:43;;;;;;;;;5.67;5.67;;;;;25.92;52.15;98306.31;4947759;28;103426;-83
2021/07/17 00:28:11;;;;;;;;;4.67;4.33;;;;;25.91;52.04;98305.50;4940500;28;102332;-82
2021/07/17 00:30:40;;;;;;;;;3.67;3.67;;;;;25.92;52.28;98309.09;4935679;28;102445;-82
2021/07/17 00:33:08;;;;;;;;;4.33;4.33;;;;;25.91;52.20;98310.22;4946063;28;104217;-81
2021/07/17 00:35:35;;;;;;;;;5.00;5.00;;;;;25.90;52.16;98303.00;4941494;28;104436;-82
2021/07/17 00:38:02;;;;;;;;;4.00;4.00;;;;;25.89;52.37;98307.75;4940329;28;102509;-82
2021/07/17 00:40:29;;;;;;;;;5.00;5.00;;;;;25.90;52.23;98319.63;4943356;28;102118;-82
2021/07/17 00:42:56;;;;;;;;;6.33;6.00;;;;;25.89;52.22;98326.34;4929149;28;102423;-82
2021/07/17 00:45:23;;;;;;;;;5.00;5.00;;;;;25.89;52.13;98320.78;4933210;28;103830;-82
2021/07/17 00:47:51;;;;;;;;;4.33;3.67;;;;;25.88;52.28;98327.44;4938184;28;102456;-82
2021/07/17 00:50:19;;;;;;;;;5.67;5.00;;;;;25.89;52.11;98326.34;4938574;28;103560;-82
2021/07/17 00:52:46;;;;;;;;;5.67;5.00;;;;;25.89;52.07;98334.66;4938419;28;102599;-82
2021/07/17 00:55:14;;;;;;;;;4.67;4.67;;;;;25.88;52.11;98328.28;4937385;28;109943;-82
2021/07/17 00:57:42;;;;;;;;;6.33;5.33;;;;;25.89;52.04;98334.66;4945209;28;102219;-82
2021/07/17 01:00:10;;;;;;;;;5.33;5.33;;;;;25.88;52.12;98335.75;4924829;28;102258;-82
2021/07/17 01:02:39;;;;;;;;;6.00;5.33;;;;;25.89;51.99;98335.47;4926051;28;103108;-82
2021/07/17 01:05:07;;;;;;;;;5.00;5.00;;;;;25.89;51.99;98329.09;4933552;28;110708;-82
2021/07/17 01:07:34;;;;;;;;;7.00;5.33;;;;;25.88;52.07;98335.75;4918214;28;102544;-82
2021/07/17 01:10:04;;;;;;;;;5.67;5.00;;;;;25.87;52.14;98342.44;4925001;28;102304;-82
2021/07/17 01:12:33;;;;;;;;;4.33;4.33;;;;;25.87;52.24;98337.72;4937942;28;102431;-82
2021/07/17 01:15:02;;;;;;;;;6.00;6.00;;;;;25.85;52.05;98344.69;4918840;28;103170;-82
2021/07/17 01:17:30;;;;;;;;;6.33;6.33;;;;;25.85;52.07;98341.94;4921261;28;102998;-82
2021/07/17 01:20:01;;;;;;;;;5.33;4.67;;;;;25.85;52.22;98350.25;4946684;28;102689;-82
2021/07/17 01:22:31;;;;;;;;;6.33;5.33;;;;;25.84;52.21;98348.59;4938683;28;102330;-82
2021/07/17 01:25:00;;;;;;;;;4.67;4.67;;;;;25.84;52.06;98345.81;4925952;28;104397;-82
2021/07/17 01:27:30;;;;;;;;;6.00;5.67;;;;;25.82;52.19;98335.03;4938734;28;102260;-82
2021/07/17 01:30:01;;;;;;;;;6.00;6.00;;;;;25.82;52.28;98335.03;4927266;28;102195;-82
2021/07/17 01:32:30;;;;;;;;;9.33;7.00;;;;;25.82;52.18;98353.59;4935303;28;102479;-82
2021/07/17 01:35:00;;;;;;;;;5.00;5.00;;;;;25.81;52.24;98355.53;4932028;28;103576;-82
2021/07/17 01:37:28;;;;;;;;;7.33;7.00;;;;;25.79;52.29;98357.81;4940525;28;102694;-82
2021/07/17 01:39:55;;;;;;;;;8.33;8.33;;;;;25.78;52.03;98350.63;4930476;28;102147;-82
2021/07/17 01:42:23;;;;;;;;;6.67;6.33;;;;;25.79;52.09;98345.91;4940006;28;102657;-82
2021/07/17 01:44:50;;;;;;;;;6.00;6.00;;;;;25.79;52.18;98345.91;4940828;28;105581;-82
2021/07/17 01:47:17;;;;;;;;;8.67;7.67;;;;;25.77;52.01;98338.72;4926286;28;103723;-82
2021/07/17 01:49:45;;;;;;;;;5.33;5.33;;;;;25.79;52.13;98341.19;4937135;28;102376;-82
2021/07/17 01:52:12;;;;;;;;;5.67;5.67;;;;;25.78;51.96;98342.31;4942688;28;102243;-82
2021/07/17 01:54:39;;;;;;;;;7.33;7.33;;;;;25.77;51.96;98338.72;4937445;28;108910;-82
2021/07/17 01:57:06;;;;;;;;;6.33;6.00;;;;;25.77;51.94;98333.19;4947818;28;102711;-82
2021/07/17 01:59:39;;;;;;;;;4.67;4.33;;;;;25.76;51.94;98323.22;4941465;28;102515;-82
2021/07/17 02:02:09;;;;;;;;;6.67;5.67;;;;;25.76;51.79;98331.53;4933830;28;102885;-82
2021/07/17 02:04:38;;;;;;;;;6.00;5.00;;;;;25.75;51.93;98327.16;4939913;28;112124;-82
2021/07/17 02:07:06;;;;;;;;;9.00;8.00;;;;;25.72;52.14;98324.13;4944393;28;102594;-82
2021/07/17 02:09:37;;;;;;;;;7.67;7.00;;;;;25.72;52.06;98322.19;4931879;28;102909;-82
2021/07/17 02:12:04;;;;;;;;;9.00;8.00;;;;;25.70;52.00;98320.88;4933314;28;102745;-82
2021/07/17 02:14:38;;;;;;;;;7.00;6.33;;;;;25.70;52.05;98326.41;4934716;28;104144;-82
2021/07/17 02:17:06;;;;;;;;;8.00;8.00;;;;;25.70;52.03;98323.66;4941522;28;103418;-82
2021/07/17 02:19:33;;;;;;;;;7.33;7.33;;;;;25.71;51.74;98334.41;4920691;28;102652;-82
2021/07/17 02:22:00;;;;;;;;;5.67;5.67;;;;;25.69;51.90;98336.66;4934255;28;102418;-82
2021/07/17 02:24:28;;;;;;;;;7.00;7.00;;;;;25.68;51.96;98334.19;4936719;28;104023;-82
2021/07/17 02:26:55;;;;;;;;;7.33;6.33;;;;;25.68;51.93;98340.56;4932102;28;102547;-82
2021/07/17 02:29:22;;;;;;;;;7.00;6.33;;;;;25.68;51.88;98342.50;4940951;28;102402;-82
2021/07/17 02:31:49;;;;;;;;;7.00;5.67;;;;;25.67;52.02;98336.13;4937430;28;102182;-82
2021/07/17 02:34:16;;;;;;;;;7.00;7.00;;;;;25.67;51.95;98340.84;4929102;28;104674;-82
2021/07/17 02:36:44;;;;;;;;;10.33;7.33;;;;;25.66;51.85;98336.47;4936743;28;103152;-82
2021/07/17 02:39:11;;;;;;;;;7.67;7.67;;;;;25.66;51.85;98337.28;4939528;28;103015;-82
2021/07/17 02:41:38;;;;;;;;;8.00;5.67;;;;;25.66;51.67;98337.28;4930552;28;102555;-82
2021/07/17 02:44:06;;;;;;;;;7.67;6.33;;;;;25.66;51.91;98334.53;4935088;28;104181;-82
2021/07/17 02:46:34;;;;;;;;;6.00;5.00;;;;;25.64;51.86;98331.22;4936428;28;102223;-82
2021/07/17 02:49:01;;;;;;;;;7.00;6.00;;;;;25.63;51.73;98339.81;4921905;28;104109;-82
2021/07/17 02:51:28;;;;;;;;;6.33;6.33;;;;;25.63;51.91;98339.81;4941658;28;102236;-82
2021/07/17 02:53:55;;;;;;;;;8.67;6.67;;;;;25.63;51.86;98332.34;4933649;28;104207;-82
2021/07/17 02:56:22;;;;;;;;;6.67;6.00;;;;;25.62;51.79;98330.69;4927679;28;102510;-82
2021/07/17 02:58:49;;;;;;;;;7.67;6.00;;;;;25.62;52.06;98324.34;4936815;28;102811;-82
2021/07/17 03:01:16;;;;;;;;;8.67;8.00;;;;;25.61;51.85;98329.06;4932163;28;102654;-82
2021/07/17 03:03:44;;;;;;;;;7.33;5.67;;;;;25.60;51.76;98326.59;4940146;28;104256;-83
2021/07/17 03:06:14;;;;;;;;;7.67;7.33;;;;;25.57;51.81;98328.03;4938763;28;102067;-82
2021/07/17 03:08:41;;;;;;;;;9.67;8.33;;;;;25.58;51.75;98335.19;4932451;28;102705;-82
2021/07/17 03:11:08;;;;;;;;;6.67;6.00;;;;;25.57;51.69;98330.81;4934161;28;103301;-82
2021/07/17 03:13:35;;;;;;;;;8.67;7.33;;;;;25.59;51.70;98339.63;4941984;28;104232;-82
2021/07/17 03:16:03;;;;;;;;;8.00;8.00;;;;;25.58;51.80;98335.19;4944034;28;102539;-82
2021/07/17 03:18:30;;;;;;;;;8.33;8.33;;;;;25.57;51.81;98339.13;4934508;28;105246;-82
2021/07/17 03:20:58;;;;;;;;;8.00;7.00;;;;;25.55;51.88;98327.50;4925414;28;102628;-82
2021/07/17 03:23:25;;;;;;;;;10.33;8.33;;;;;25.53;51.75;98329.72;4966003;28;105622;-82
2021/07/17 03:25:52;;;;;;;;;9.33;7.67;;;;;25.54;51.79;98334.16;4935459;28;102975;-82
2021/07/17 03:28:19;;;;;;;;;6.67;6.67;;;;;25.55;51.91;98326.69;4935940;28;102804;-81
2021/07/17 03:30:46;;;;;;;;;9.00;7.00;;;;;25.53;51.88;98340.78;4940521;28;102664;-81
2021/07/17 03:33:14;;;;;;;;;7.00;7.00;;;;;25.52;51.81;98338.34;4943989;28;104313;-82
2021/07/17 03:35:41;;;;;;;;;8.67;8.00;;;;;25.53;51.92;98331.69;4941150;28;103156;-82
2021/07/17 03:38:08;;;;;;;;;7.33;7.33;;;;;25.51;51.89;98340.28;4940702;28;102203;-82
2021/07/17 03:40:36;;;;;;;;;7.00;7.00;;;;;25.53;51.92;98338.03;4940920;28;105131;-82
2021/07/17 03:43:03;;;;;;;;;7.00;7.00;;;;;25.50;51.93;98338.66;4934655;28;104142;-82
2021/07/17 03:45:30;;;;;;;;;7.00;6.67;;;;;25.52;52.05;98354.97;4932232;28;102596;-82
2021/07/17 03:47:58;;;;;;;;;10.67;10.00;;;;;25.52;52.11;98353.03;4939806;28;103328;-82
2021/07/17 03:50:29;;;;;;;;;6.33;6.33;;;;;25.51;51.85;98356.91;4937278;28;102397;-82
2021/07/17 03:52:56;;;;;;;;;7.00;6.00;;;;;25.52;51.87;98355.78;4944867;28;104091;-82
2021/07/17 03:55:24;;;;;;;;;7.00;7.00;;;;;25.50;51.90;98359.97;4944234;28;102313;-82
2021/07/17 03:57:51;;;;;;;;;8.67;8.33;;;;;25.48;51.88;98357.53;4933770;28;105870;-82
2021/07/17 04:00:18;;;;;;;;;10.00;9.00;;;;;25.47;52.13;98355.88;4939978;28;102616;-82
2021/07/17 04:02:45;;;;;;;;;7.67;7.67;;;;;25.48;51.98;98352.00;4931012;28;105050;-82
2021/07/17 04:05:14;;;;;;;;;8.33;7.33;;;;;25.48;52.21;98362.25;4909679;28;102591;-82
2021/07/17 04:07:41;;;;;;;;;6.00;6.00;;;;;25.48;52.09;98352.00;4951594;28;104910;-82
2021/07/17 04:10:09;;;;;;;;;7.00;7.00;;;;;25.50;52.14;98351.66;4947756;28;102659;-82
2021/07/17 04:12:37;;;;;;;;;8.00;8.00;;;;;25.49;52.03;98356.38;4933196;28;104174;-82
2021/07/17 04:15:06;;;;;;;;;8.00;8.00;;;;;25.48;52.02;98354.75;4923165;28;102560;-82
2021/07/17 04:17:33;;;;;;;;;6.67;6.67;;;;;25.48;52.32;98349.22;4942306;28;104107;-82
2021/07/17 04:20:00;;;;;;;;;7.33;7.00;;;;;25.47;52.08;98344.81;4912697;28;104039;-82
2021/07/17 04:22:27;;;;;;;;;9.00;9.00;;;;;25.47;52.32;98347.56;4924519;28;103639;-82
2021/07/17 04:24:55;;;;;;;;;9.00;7.00;;;;;25.48;52.15;98351.16;4934896;28;102081;-82
2021/07/17 04:27:22;;;;;;;;;12.00;9.00;;;;;25.46;52.35;98347.88;4939738;28;105178;-82
2021/07/17 04:29:49;;;;;;;;;8.00;7.33;;;;;25.47;52.29;98344.81;4946345;28;102558;-82
2021/07/17 04:32:16;;;;;;;;;9.00;7.33;;;;;25.47;52.30;98349.50;4946300;28;104634;-82
2021/07/17 04:34:44;;;;;;;;;9.67;9.67;;;;;25.47;52.48;98350.34;4935666;28;102368;-82
2021/07/17 04:37:16;;;;;;;;;8.67;7.67;;;;;25.47;52.39;98350.34;4950451;28;102653;-81
2021/07/17 04:39:44;;;;;;;;;6.33;6.33;;;;;25.47;52.44;98353.09;4943581;28;103372;-82
2021/07/17 04:42:11;;;;;;;;;7.67;7.67;;;;;25.46;52.33;98354.22;4910970;28;104262;-82
2021/07/17 04:44:38;;;;;;;;;7.00;6.33;;;;;25.46;52.57;98353.41;4940962;28;104466;-82
2021/07/17 04:47:07;;;;;;;;;7.33;6.00;;;;;25.47;52.36;98350.34;4950607;28;102254;-82
2021/07/17 04:49:34;;;;;;;;;6.00;5.33;;;;;25.48;52.64;98342.84;4938661;28;102110;-82
2021/07/17 04:52:01;;;;;;;;;6.00;5.33;;;;;25.46;52.46;98343.16;4932802;28;104032;-82
2021/07/17 04:54:29;;;;;;;;;8.00;7.33;;;;;25.47;52.35;98355.88;4932126;28;104435;-82
2021/07/17 04:56:56;;;;;;;;;9.33;7.67;;;;;25.48;52.61;98348.41;4908346;28;102924;-82
2021/07/17 04:59:23;;;;;;;;;6.00;6.00;;;;;25.47;52.51;98344.81;4942023;28;102752;-82
2021/07/17 05:01:51;;;;;;;;;9.00;7.33;;;;;25.46;52.65;98353.41;4936202;28;104039;-82
2021/07/17 05:04:18;;;;;;;;;6.67;6.67;;;;;25.49;52.48;98347.25;4942051;28;102643;-82
2021/07/17 05:06:45;;;;;;;;;7.33;7.33;;;;;25.47;52.71;98350.34;4938636;28;102169;-82
2021/07/17 05:09:12;;;;;;;;;6.33;6.33;;;;;25.47;52.82;98350.34;4940211;28;102240;-82
2021/07/17 05:11:39;;;;;;;;;9.00;8.00;;;;;25.50;52.79;98352.50;4934092;28;104910;-82
2021/07/17 05:14:07;;;;;;;;;9.00;7.67;;;;;25.50;52.83;98346.94;4935229;28;102135;-82
2021/07/17 05:16:35;;;;;;;;;7.33;7.33;;;;;25.52;52.77;98352.19;4942919;28;102630;-82
2021/07/17 05:19:02;;;;;;;;;8.00;8.00;;;;;25.50;52.67;98346.94;4931003;28;102693;-81
2021/07/17 05:21:29;;;;;;;;;9.00;8.00;;;;;25.52;52.67;98350.25;4931803;28;104053;-82
2021/07/17 05:23:56;;;;;;;;;8.00;8.00;;;;;25.53;52.77;98348.31;4947126;28;103321;-81
2021/07/17 05:26:23;;;;;;;;;8.00;8.00;;;;;25.53;52.71;98342.78;4927055;28;102569;-82
2021/07/17 05:28:50;;;;;;;;;6.00;5.67;;;;;25.53;52.96;98349.09;4936593;28;104413;-82
2021/07/17 05:31:18;;;;;;;;;8.00;8.00;;;;;25.56;52.92;98356.03;4943189;28;104012;-82
2021/07/17 05:33:45;;;;;;;;;9.67;7.33;;;;;25.55;52.66;98343.31;4938501;28;102340;-82
2021/07/17 05:36:13;;;;;;;;;8.00;8.00;;;;;25.54;52.85;98339.72;4941004;28;102079;-82
2021/07/17 05:38:40;;;;;;;;;9.67;8.67;;;;;25.53;52.72;98349.09;4942544;28;102282;-82
2021/07/17 05:41:07;;;;;;;;;7.00;6.00;;;;;25.54;52.90;98344.41;4945560;28;103777;-82
2021/07/17 05:43:35;;;;;;;;;7.00;7.00;;;;;25.55;52.73;98349.66;4939667;28;104026;-82
2021/07/17 05:46:02;;;;;;;;;6.33;5.00;;;;;25.56;52.89;98348.53;4952308;28;102242;-82
2021/07/17 05:48:29;;;;;;;;;6.00;6.00;;;;;25.55;52.91;98346.06;4947476;28;111873;-81
2021/07/17 05:50:56;;;;;;;;;5.67;4.33;;;;;25.55;52.65;98352.44;4929946;28;104251;-82
2021/07/17 05:53:23;;;;;;;;;6.33;6.00;;;;;25.56;52.61;98348.53;4936700;28;102357;-82
2021/07/17 05:55:50;;;;;;;;;7.33;7.00;;;;;25.57;52.52;98358.50;4940104;28;102911;-81
2021/07/17 05:58:21;;;;;;;;;6.00;5.00;;;;;25.58;52.55;98357.34;4936918;28;102578;-81
2021/07/17 06:00:48;;;;;;;;;7.33;6.00;;;;;25.58;52.61;98356.53;4940968;28;103769;-82
2021/07/17 06:03:17;;;;;;;;;7.00;7.00;;;;;25.59;52.54;98355.41;4956297;28;102332;-82
2021/07/17 06:05:44;;;;;;;;;6.33;6.00;;;;;25.59;52.55;98363.72;4937422;28;110189;-82
2021/07/17 06:08:11;;;;;;;;;5.00;5.00;;;;;25.60;52.64;98359.81;4950071;28;103348;-82
2021/07/17 06:10:38;;;;;;;;;7.00;5.67;;;;;25.60;52.62;98366.19;4953663;28;104304;-82
2021/07/17 06:13:06;;;;;;;;;6.67;6.33;;;;;25.60;52.61;98362.59;4935569;28;102680;-82
2021/07/17 06:15:33;;;;;;;;;5.67;5.67;;;;;25.59;52.57;98367.31;4940136;28;102364;-82
2021/07/17 06:18:01;;;;;;;;;5.67;5.00;;;;;25.60;52.53;98366.19;4944955;28;102732;-82
2021/07/17 06:20:28;;;;;;;;;7.00;6.00;;;;;25.61;52.47;98364.25;4938526;28;104064;-82
2021/07/17 06:22:55;;;;;;;;;6.00;6.00;;;;;25.60;52.43;98368.97;4946079;28;103298;-82
2021/07/17 06:25:22;;;;;;;;;7.67;7.67;;;;;25.61;52.55;98356.75;4942833;28;102374;-82
2021/07/17 06:27:49;;;;;;;;;7.67;7.67;;;;;25.61;52.62;98351.22;4938241;28;102613;-82
2021/07/17 06:30:17;;;;;;;;;8.33;7.33;;;;;25.61;52.52;98354.00;4937216;28;104078;-82
2021/07/17 06:32:44;;;;;;;;;6.33;6.00;;;;;25.61;52.61;98359.53;4940925;28;102164;-82
2021/07/17 06:35:12;;;;;;;;;7.00;6.00;;;;;25.62;52.58;98358.38;4940150;28;102377;-82
2021/07/17 06:37:42;;;;;;;;;6.67;6.00;;;;;25.63;52.56;98354.50;4919151;28;106245;-82
2021/07/17 06:40:13;;;;;;;;;7.00;6.00;;;;;25.63;52.45;98361.97;4950173;28;104010;-82
2021/07/17 06:42:42;;;;;;;;;8.33;7.33;;;;;25.64;52.55;98358.09;4937853;28;102677;-82
2021/07/17 06:45:10;;;;;;;;;8.00;7.33;;;;;25.64;52.56;98360.84;4930874;28;102966;-82
2021/07/17 06:47:37;;;;;;;;;5.67;5.67;;;;;25.64;52.45;98361.69;4947949;28;102442;-82
2021/07/17 06:50:05;;;;;;;;;8.00;6.00;;;;;25.65;52.43;98362.50;4943693;28;104463;-82
2021/07/17 06:52:32;;;;;;;;;7.00;7.00;;;;;25.63;52.59;98362.81;4933763;28;102992;-82
2021/07/17 06:55:00;;;;;;;;;7.00;6.33;;;;;25.64;52.42;98375.53;4952016;28;102429;-82
2021/07/17 06:57:27;;;;;;;;;8.00;8.00;;;;;25.65;52.51;98366.09;4942782;28;102452;-82
2021/07/17 06:59:54;;;;;;;;;7.33;7.33;;;;;25.65;52.37;98363.34;4931516;28;103979;-82
2021/07/17 07:02:21;;;;;;;;;7.00;6.33;;;;;25.65;52.46;98374.41;4942519;28;107026;-82
2021/07/17 07:04:48;;;;;;;;;6.00;5.33;;;;;25.66;52.50;98367.75;4939019;28;102640;-82
2021/07/17 07:07:15;;;;;;;;;9.33;6.67;;;;;25.67;52.40;98366.59;4925214;28;103330;-82
2021/07/17 07:09:43;;;;;;;;;4.00;4.00;;;;;25.68;52.49;98364.66;4951989;28;104310;-81
2021/07/17 07:12:10;;;;;;;;;6.67;6.00;;;;;25.67;52.34;98361.06;4941166;28;102322;-82
2021/07/17 07:14:37;;;;;;;;;7.00;5.00;;;;;25.67;52.42;98355.53;4935636;28;102721;-82
2021/07/17 07:17:04;;;;;;;;;6.33;6.33;;;;;25.68;52.42;98351.63;4933887;28;102909;-82
2021/07/17 07:19:31;;;;;;;;;5.00;5.00;;;;;25.68;52.34;98351.63;4937245;28;104147;-82
2021/07/17 07:21:58;;;;;;;;;6.00;5.67;;;;;25.69;52.34;98344.16;4929266;28;102434;-82
2021/07/17 07:24:26;;;;;;;;;6.00;5.00;;;;;25.69;52.26;98342.22;4946039;28;103891;-81
2021/07/17 07:26:53;;;;;;;;;7.00;6.00;;;;;25.69;52.25;98347.75;4939973;28;102547;-81
2021/07/17 07:29:21;;;;;;;;;6.00;5.33;;;;;25.70;52.33;98337.50;4951379;28;104807;-81
2021/07/17 07:31:48;;;;;;;;;7.00;7.00;;;;;25.71;52.22;98339.94;4947096;28;103150;-82
2021/07/17 07:34:15;;;;;;;;;6.33;6.33;;;;;25.72;52.29;98333.28;4951265;28;102067;-82
2021/07/17 07:36:42;;;;;;;;;7.33;6.33;;;;;25.73;52.26;98342.41;4933039;28;104456;-82
2021/07/17 07:39:09;;;;;;;;;7.00;6.33;;;;;25.72;52.17;98336.03;4933147;28;104100;-82
2021/07/17 07:41:36;;;;;;;;;6.00;6.00;;;;;25.73;52.32;98339.63;4932694;28;102136;-82
2021/07/17 07:44:04;;;;;;;;;7.00;7.00;;;;;25.73;52.28;98334.09;4932365;28;102761;-85
2021/07/17 07:46:33;;;;;;;;;6.00;6.00;;;;;25.73;52.30;98348.78;4929279;28;105965;-85
2021/07/17 07:49:01;;;;;;;;;6.00;6.00;;;;;25.69;52.22;98335.84;4940852;28;104145;-85
2021/07/17 07:51:28;;;;;;;;;7.00;6.33;;;;;25.75;52.25;98343.75;4920415;28;103509;-84
2021/07/17 07:53:55;;;;;;;;;5.67;5.00;;;;;25.75;52.20;98346.53;4929280;28;103577;-84
2021/07/17 07:56:23;;;;;;;;;6.00;6.00;;;;;25.76;52.11;98348.16;4937657;28;102621;-83
2021/07/17 07:58:50;;;;;;;;;8.33;6.00;;;;;25.76;52.25;98352.88;4946570;28;104212;-85
2021/07/17 08:01:17;;;;;;;;;5.67;5.67;;;;;25.76;52.11;98359.22;4929523;28;102368;-86
2021/07/17 08:03:44;;;;;;;;;8.00;6.00;;;;;25.77;52.17;98347.03;4927402;28;102693;-84
2021/07/17 08:06:11;;;;;;;;;5.67;5.00;;;;;25.78;52.04;98347.84;4934334;28;110857;-85
2021/07/17 08:08:38;;;;;;;;;7.00;6.33;;;;;25.79;52.19;98351.44;4923435;28;104338;-86
2021/07/17 08:11:06;;;;;;;;;6.00;6.00;;;;;25.79;51.99;98348.69;4921086;28;102549;-86
2021/07/17 08:13:33;;;;;;;;;6.33;5.67;;;;;25.79;52.11;98349.50;4948549;28;103054;-85
2021/07/17 08:16:02;;;;;;;;;5.33;5.00;;;;;25.80;52.11;98355.88;4929271;28;103411;-82
2021/07/17 08:18:30;;;;;;;;;6.00;4.33;;;;;25.80;52.00;98342.84;4931267;28;104148;-82
2021/07/17 08:20:57;;;;;;;;;6.00;5.67;;;;;25.81;52.00;98354.72;4960855;28;102234;-82
2021/07/17 08:23:24;;;;;;;;;5.33;5.33;;;;;25.81;52.07;98350.00;4933163;28;102547;-82
2021/07/17 08:25:51;;;;;;;;;7.00;6.33;;;;;25.81;52.09;98352.78;4953455;28;102191;-82
2021/07/17 08:28:18;;;;;;;;;7.00;5.67;;;;;25.82;51.95;98356.38;4943958;28;108857;-82
2021/07/17 08:30:46;;;;;;;;;5.33;5.33;;;;;25.83;51.92;98355.25;4924227;28;103873;-82
2021/07/17 08:33:13;;;;;;;;;7.33;7.33;;;;;25.83;52.04;98358.84;4935879;28;107492;-82
2021/07/17 08:35:40;;;;;;;;;6.00;6.00;;;;;25.85;52.04;98355.78;4930778;28;103376;-82
2021/07/17 08:38:07;;;;;;;;;7.00;6.00;;;;;25.84;52.02;98365.22;4941204;28;104112;-82
2021/07/17 08:40:34;;;;;;;;;5.67;5.00;;;;;25.84;51.97;98363.25;4946615;28;103143;-82
2021/07/17 08:43:02;;;;;;;;;6.67;5.67;;;;;25.85;51.86;98366.84;4957153;28;102522;-82
2021/07/17 08:45:29;;;;;;;;;4.00;4.00;;;;;25.87;51.92;98367.34;4935132;28;103048;-82
2021/07/17 08:47:57;;;;;;;;;6.00;4.67;;;;;25.87;51.97;98367.34;4938259;28;104009;-81
2021/07/17 08:50:25;;;;;;;;;7.00;6.33;;;;;25.88;51.75;98360.69;4941843;28;103759;-82
2021/07/17 08:52:57;;;;;;;;;6.33;6.33;;;;;25.88;51.84;98355.97;4933012;28;102680;-82
2021/07/17 08:55:32;;;;;;;;;5.00;5.00;;;;;25.89;51.93;98359.56;4863157;28;103807;-82
2021/07/17 08:58:00;;;;;;;;;4.67;4.67;;;;;25.89;51.78;98362.34;4950904;28;104092;-82
2021/07/17 09:00:46;;;;;;;;;3.67;3.67;;;;;25.90;51.83;98358.44;4935472;28;102573;-82
2021/07/17 09:03:17;;;;;;;;;5.33;4.67;;;;;25.90;51.90;98359.25;4931908;28;102530;-82
2021/07/17 09:05:48;;;;;;;;;6.00;6.00;;;;;25.90;51.74;98359.25;4946255;28;103222;-82
2021/07/17 09:08:17;;;;;;;;;6.00;6.00;;;;;25.91;51.73;98358.13;4937300;28;104298;-82
2021/07/17 09:10:50;;;;;;;;;0.00;0.00;;;;;25.90;51.86;98355.66;4923965;28;102639;-82
2021/07/17 09:13:18;;;;;;;;;5.00;5.00;;;;;25.92;51.74;98362.56;4935352;28;102535;-82
2021/07/17 09:15:48;;;;;;;;;6.00;6.00;;;;;25.93;51.88;98352.28;4935126;28;102940;-82
2021/07/17 09:18:16;;;;;;;;;6.00;5.00;;;;;25.94;51.77;98360.28;4936093;28;104105;-82
2021/07/17 09:20:58;;;;;;;;;7.00;6.33;;;;;25.94;51.77;98343.66;4934787;28;102337;-82
2021/07/17 09:23:28;;;;;;;;;6.67;6.00;;;;;25.95;51.90;98350.03;4942171;28;102387;-82
2021/07/17 09:25:56;;;;;;;;;6.00;5.00;;;;;25.95;51.75;98348.06;4927866;28;102716;-82
2021/07/17 09:28:28;;;;;;;;;4.67;3.00;;;;;25.95;51.83;98350.84;4931418;28;104350;-82
2021/07/17 09:30:59;;;;;;;;;4.67;4.00;;;;;25.96;51.75;98349.72;4934573;28;104205;-82
2021/07/17 09:33:27;;;;;;;;;4.67;4.00;;;;;25.98;51.70;98343.88;4939521;28;103151;-82
2021/07/17 09:35:56;;;;;;;;;7.00;6.00;;;;;25.98;51.56;98349.44;4926832;28;102318;-82
2021/07/17 09:38:23;;;;;;;;;4.00;3.00;;;;;25.99;51.53;98353.81;4936456;28;109553;-82
2021/07/17 09:41:02;;;;;;;;;6.00;5.67;;;;;26.00;51.71;98347.16;4934995;28;103769;-82
2021/07/17 09:43:41;;;;;;;;;5.33;4.33;;;;;26.00;51.69;98344.38;4929607;28;102728;-82
2021/07/17 09:46:24;;;;;;;;;6.00;6.00;;;;;26.01;51.64;98343.25;4938593;28;102691;-82
2021/07/17 09:48:52;;;;;;;;;7.67;6.33;;;;;26.02;51.64;98350.44;4935990;28;108942;-82
2021/07/17 09:51:21;;;;;;;;;5.33;5.33;;;;;26.03;51.64;98343.75;4939624;28;102581;-82
2021/07/17 09:53:53;;;;;;;;;5.00;5.00;;;;;26.03;51.60;98346.53;4935764;28;102147;-82
2021/07/17 09:56:24;;;;;;;;;5.00;5.00;;;;;26.04;51.64;98346.22;4934037;28;102147;-82
2021/07/17 09:58:53;;;;;;;;;5.33;4.33;;;;;26.05;51.56;98344.28;4950038;28;108703;-81
2021/07/17 10:01:23;;;;;;;;;5.00;5.00;;;;;26.05;51.53;98349.81;4935473;28;104106;-82
2021/07/17 10:03:56;;;;;;;;;6.33;5.67;;;;;26.06;51.58;98341.22;4923243;28;104362;-82
2021/07/17 10:06:29;;;;;;;;;7.00;7.00;;;;;26.07;51.56;98339.25;4938217;28;102392;-82
2021/07/17 10:08:56;;;;;;;;;5.00;5.00;;;;;26.08;51.52;98347.25;4935404;28;108772;-81
2021/07/17 10:11:24;;;;;;;;;6.33;6.33;;;;;26.08;51.58;98340.88;4945440;28;102630;-82
2021/07/17 10:13:51;;;;;;;;;0.00;0.00;;;;;26.10;51.53;98346.97;4960273;28;102147;-82
2021/07/17 10:16:22;;;;;;;;;6.33;6.00;;;;;26.10;51.39;98339.47;4936108;28;102677;-82
2021/07/17 10:18:50;;;;;;;;;7.33;6.67;;;;;26.11;51.43;98334.75;4922315;28;104086;-82
2021/07/17 10:21:17;;;;;;;;;5.33;5.00;;;;;26.11;51.45;98338.34;4940245;28;103022;-82
2021/07/17 10:23:44;;;;;;;;;6.00;6.00;;;;;26.13;51.52;98340.78;4919271;28;102656;-82
2021/07/17 10:26:12;;;;;;;;;5.00;5.00;;;;;26.11;51.57;98329.19;4915774;28;102979;-82
2021/07/17 10:28:39;;;;;;;;;4.33;3.67;;;;;26.11;51.42;98324.50;4929381;28;104005;-82
2021/07/17 10:31:07;;;;;;;;;5.33;4.33;;;;;26.12;51.49;98331.66;4924351;28;102611;-82
2021/07/17 10:33:34;;;;;;;;;4.33;4.00;;;;;26.15;51.39;98327.44;4931431;28;103297;-82
2021/07/17 10:36:09;;;;;;;;;3.67;3.67;;;;;26.15;51.31;98321.91;4940673;28;102619;-82
2021/07/17 10:38:39;;;;;;;;;6.00;5.67;;;;;26.16;51.46;98318.00;4936167;28;104153;-82
2021/07/17 10:41:06;;;;;;;;;6.00;5.00;;;;;26.17;51.38;98322.41;4931707;28;102509;-82
2021/07/17 10:43:33;;;;;;;;;7.33;5.00;;;;;26.18;51.57;98321.28;4939879;28;102440;-82
2021/07/17 10:46:01;;;;;;;;;5.33;5.00;;;;;26.16;51.38;98312.47;4911409;28;103825;-82
2021/07/17 10:48:30;;;;;;;;;6.67;5.33;;;;;26.18;51.36;98316.56;4924634;28;104111;-82
2021/07/17 10:51:21;;;;;;;;;9.00;6.00;;;;;26.18;51.32;98315.75;4943225;28;104729;-82
2021/07/17 10:53:49;;;;;;;;;6.00;5.00;;;;;26.19;51.35;98309.91;4946881;28;102090;-82
2021/07/17 10:56:28;;;;;;;;;6.00;5.00;;;;;26.20;51.30;98313.50;4927566;28;102601;-82
2021/07/17 10:59:19;;;;;;;;;4.67;4.00;;;;;26.24;51.09;98313.72;4935992;28;108912;-82
2021/07/17 11:01:59;;;;;;;;;4.33;4.33;;;;;26.21;51.32;98301.28;4865783;28;102285;-82
2021/07/17 11:04:53;;;;;;;;;5.33;3.67;;;;;26.22;51.38;98300.16;4942493;28;102195;-82
2021/07/17 11:07:25;;;;;;;;;5.00;5.00;;;;;26.24;51.24;98292.38;4864547;28;103800;-82
2021/07/17 11:10:03;;;;;;;;;5.00;5.00;;;;;26.25;51.19;98294.00;4926470;28;105316;-82
2021/07/17 11:12:44;;;;;;;;;4.00;3.33;;;;;26.26;51.07;98294.81;4931447;28;103697;-82
2021/07/17 11:15:11;;;;;;;;;4.67;3.33;;;;;26.27;51.20;98291.72;4941636;28;102246;-82
2021/07/17 11:17:51;;;;;;;;;2.00;2.00;;;;;26.27;51.19;98286.19;4939611;28;110781;-82
2021/07/17 11:20:39;;;;;;;;;5.00;5.00;;;;;26.29;51.17;98278.41;4916250;28;104097;-82
2021/07/17 11:23:12;;;;;;;;;5.33;4.33;;;;;26.27;51.16;98280.66;4895102;28;102389;-82
2021/07/17 11:25:51;;;;;;;;;4.33;3.67;;;;;26.29;51.28;98283.94;4941080;28;102615;-81
2021/07/17 11:29:00;;;;;;;;;5.00;4.67;;;;;26.26;51.36;98276.22;4942548;28;102815;-82
2021/07/17 11:31:27;;;;;;;;;5.33;5.00;;;;;26.29;51.27;98270.09;4865005;28;108899;-82